KBBD/BBD METAR and TAF weather

Enter ICAO airport designator
Station Type Date Time Source
KBBD METAR 2018/07/21 13:15 UTC NOAA

KBBD 211315Z AUTO 16004KT 10SM CLR 25/21 A3007 RMK AO2


Station Type Date Time Source
KBBD Decoded METAR 2018/07/21 13:15 UTC NOAA

Brady, Curtis Field Airport, TX, United States (KBBD) 31-10-45N 099-19-26W
Jul 21, 2018 - 09:15 AM EDT / 2018.07.21 1315 UTC
Wind: from the SSE (160 degrees) at 5 MPH (4 KT):0
Visibility: 10 mile(s):0
Sky conditions: clear
Temperature: 77 F (25 C)
Dew Point: 69 F (21 C)
Relative Humidity: 78%
Pressure (altimeter): 30.07 in. Hg (1018 hPa)
ob: KBBD 211315Z AUTO 16004KT 10SM CLR 25/21 A3007 RMK AO2
cycle: 13

Station Type Date Time Source
KBBD TAF 2018/07/21 12:22 UTC NOAA

TAF KBBD 211120Z 2112/2212 20008KT P6SM SKC


Example: see airport list